Flight Track Log - Related Links

Times and Time Zones

All times are in EDT time to prevent confusion due to time zone crossing. See the SWA2624 flight status page for this flight to view local times or setup timezone preferences in your user account.

Time Position Orientation Groundspeed Altitude Reporting Facility
EDT Latitude Longitude Course Direction KTS MPH feet Rate Location/Type
Fri 11:47:48 PM 35.0411 -106.5772 192° South 178 205 6,300  Level Albuquerque Center
Fri 11:48:49 PM 34.9983 -106.5883 192° South 218 251 8,400 2,071 Climbing Albuquerque Center
Fri 11:49:12 PM 34.9933 -106.6078 253° West 229 264 9,200 1,929 Climbing Albuquerque Center
Fri 11:50:13 PM 34.9783 -106.6978 259° West 251 289 11,100 2,262 Climbing Albuquerque Center
Fri 11:51:14 PM 35.0067 -106.8072 288° West 336 387 13,800 3,220 Climbing Albuquerque Center
Fri 11:52:16 PM 35.0636 -106.9283 300° West 362 417 17,700 3,415 Climbing Albuquerque Center
Fri 11:53:17 PM 35.0956 -107.0450 289° West 380 437 20,800 3,148 Climbing Albuquerque Center
Fri 11:54:18 PM 35.1261 -107.1875 285° West 389 448 24,100 2,951 Climbing Albuquerque Center
Fri 11:55:19 PM 35.1500 -107.3056 284° West 398 458 26,800 2,410 Climbing Albuquerque Center
Fri 11:56:20 PM 35.1775 -107.4353 285° West 395 455 29,000 1,574 Climbing Albuquerque Center
Fri 11:57:21 PM 35.2117 -107.5886 285° West 405 466 30,000 492 Climbing Albuquerque Center
Fri 11:58:22 PM 35.2261 -107.7222 278° West 410 472 30,000 49 Level Albuquerque Center
Fri 11:59:23 PM 35.2372 -107.8556 276° West 411 473 30,100 1,279 Climbing Albuquerque Center
Sat 12:00:24 AM 35.2522 -108.0097 277° West 410 472 32,600 2,311 Climbing Albuquerque Center
Sat 12:01:25 AM 35.2636 -108.1411 276° West 406 467 34,800 1,672 Climbing Albuquerque Center
Sat 12:02:26 AM 35.2756 -108.2678 277° West 396 456 36,000 590 Climbing Albuquerque Center
Sat 12:03:27 AM 35.2889 -108.4153 276° West 391 450 36,000 443 Level Albuquerque Center
Sat 12:04:28 AM 35.2997 -108.5442 276° West 394 453 36,900 934 Climbing Albuquerque Center
Sat 12:05:29 AM 35.3111 -108.6775 276° West 404 465 37,900 541 Climbing Albuquerque Center
Sat 12:06:30 AM 35.3242 -108.8331 276° West 408 470 38,000 49 Climbing Albuquerque Center
Sat 12:07:31 AM 35.3361 -108.9642 276° West 404 465 38,000  Level Albuquerque Center
Sat 12:08:32 AM 35.3464 -109.0947 276° West 403 464 38,000  Level Albuquerque Center
Sat 12:09:33 AM 35.3578 -109.2464 275° West 400 460 38,000  Level Albuquerque Center
Sat 12:10:33 AM 35.3692 -109.3756 276° West 398 458 38,000  Level Albuquerque Center
Sat 12:11:34 AM 35.3792 -109.5061 275° West 401 461 38,000  Level Albuquerque Center
Sat 12:12:35 AM 35.3903 -109.6544 275° West 396 456 38,000  Level Albuquerque Center
Sat 12:13:36 AM 35.3989 -109.7883 275° West 401 461 38,000  Level Albuquerque Center
Sat 12:14:37 AM 35.4083 -109.9186 275° West 402 463 38,000  Level Albuquerque Center
Sat 12:15:38 AM 35.4194 -110.0711 275° West 403 464 38,000  Level Albuquerque Center
Sat 12:16:39 AM 35.4275 -110.2025 274° West 404 465 38,000  Level Albuquerque Center
Sat 12:17:39 AM 35.4364 -110.3356 275° West 408 470 38,000  Level Albuquerque Center
Sat 12:18:40 AM 35.4486 -110.4936 275° West 414 476 38,000  Level Albuquerque Center
Sat 12:19:41 AM 35.4569 -110.6272 274° West 413 475 38,000  Level Albuquerque Center
Sat 12:20:42 AM 35.4667 -110.7631 275° West 415 478 38,000  Level Albuquerque Center
Sat 12:21:43 AM 35.4767 -110.9236 274° West 421 484 38,000  Level Albuquerque Center
Sat 12:22:43 AM 35.4867 -111.0606 275° West 422 486 38,000 -793 Level Albuquerque Center
Sat 12:23:44 AM 35.4967 -111.1989 275° West 424 488 36,400 -2,607 Descending Albuquerque Center
Sat 12:24:45 AM 35.5069 -111.3583 275° West 421 484 32,700 -3,049 Descending Albuquerque Center
Sat 12:25:46 AM 35.5150 -111.4956 274° West 448 516 30,200 -1,339 Descending Albuquerque Center
Sat 12:26:46 AM 35.5242 -111.6464 274° West 449 517 30,000 -99 Descending Albuquerque Center
Sat 12:27:47 AM 35.5331 -111.8006 274° West 452 520 30,000  Level Albuquerque Center
Sat 12:28:48 AM 35.5436 -111.9578 275° West 461 531 30,000  Level Albuquerque Center
Sat 12:29:49 AM 35.5517 -112.1136 274° West 463 533 30,000  Level Albuquerque Center
Sat 12:30:12 AM 35.5547 -112.1786 273° West 466 536 30,000  Level Los Angeles Center
Sat 12:30:49 AM 35.5614 -112.3036 274° West 467 537 30,000  Level Albuquerque Center
Sat 12:31:50 AM 35.5711 -112.4614 274° West 468 539 30,000  Level Albuquerque Center
Sat 12:32:14 AM 35.5750 -112.5258 274° West 468 539 30,000  Level Los Angeles Center
Sat 12:33:16 AM 35.5822 -112.6661 274° West 468 539 30,000  Level Los Angeles Center
Sat 12:34:17 AM 35.5925 -112.8589 274° West 471 542 30,000  Level Los Angeles Center
Sat 12:35:19 AM 35.6008 -113.0256 274° West 472 543 30,000  Level Los Angeles Center
Sat 12:36:20 AM 35.6075 -113.1867 273° West 471 542 30,000 -492 Level Los Angeles Center
Sat 12:37:21 AM 35.6158 -113.3472 274° West 468 539 29,000 -1,475 Descending Los Angeles Center
Sat 12:38:22 AM 35.6214 -113.4683 273° West 461 531 27,000 -2,390 Descending Los Angeles Center
Sat 12:39:24 AM 35.6372 -113.6394 277° West 430 495 24,100 -2,585 Descending Los Angeles Center
Sat 12:40:25 AM 35.6583 -113.7758 281° West 416 479 21,700 -2,341 Descending Los Angeles Center
Sat 12:41:27 AM 35.6761 -113.9061 280° West 400 460 19,300 -2,195 Descending Los Angeles Center
Sat 12:42:28 AM 35.6936 -114.0325 280° West 384 442 17,200 -2,368 Descending Los Angeles Center
Sat 12:43:21 AM 35.7097 -114.1617 279° West 371 427 14,800 -2,341 Descending Los Angeles Center
Sat 12:44:31 AM 35.7342 -114.3011 282° West 354 407 12,400 -1,732 Descending Los Angeles Center
Sat 12:44:58 AM 35.7650 -114.3392 315° West 342 394 12,000 -885 Descending Los Angeles Center
Sat 12:45:32 AM 35.7994 -114.3850 313° West 343 395 11,500 -982 Descending Los Angeles Center
Sat 12:45:53 AM 35.8253 -114.4144 317° Northwest 342 394 11,100 -1,065 Descending Los Angeles Center
Sat 12:46:34 AM 35.8664 -114.4672 314° West 342 394 10,400 -985 Descending Los Angeles Center
Sat 12:47:00 AM 35.8947 -114.5025 315° West 330 380 10,000 -590 Descending Los Angeles Center
Sat 12:47:35 AM 35.9258 -114.5414 315° West 320 368 9,800 -438 Descending Los Angeles Center
Sat 12:48:36 AM 35.9744 -114.6028 314° West 257 296 9,300 -667 Descending Los Angeles Center
Sat 12:48:56 AM 35.9911 -114.6244 314° West 242 278 8,900 -1,082 Descending Los Angeles Center
Sat 12:49:37 AM 36.0122 -114.6686 301° West 240 276 8,200 -1,049 Descending Los Angeles Center
Sat 12:50:39 AM 36.0331 -114.7450 289° West 237 273 7,100 -791 Descending Los Angeles Center
Sat 12:51:46 AM 36.0642 -114.8369 293° West 232 267 6,500 -738 Descending Los Angeles Center
Sat 12:52:41 AM 36.0781 -114.8942 287° West 232 267 5,600 -1,190 Descending Los Angeles Center
Sat 12:53:47 AM 36.0747 -114.9931 268° West 204 235 4,100 -1,134 Descending Los Angeles Center
Sat 12:54:48 AM 36.0739 -115.0492 269° West 156 180 3,200 -787 Descending Los Angeles Center
Sat 12:55:49 AM 36.0742 -115.0997 270° West 145 167 2,500 -554 Descending Los Angeles Center
Sat 12:56:58 AM 36.0747 -115.1464 271° West 154 177 2,000 -435 Descending Los Angeles Center
Sat 12:58:00 AM 36.0667 -115.1500 270° West  Level FlightAware Approximate

Login

Don't have an account? Register now (free) for customized features, flight alerts, and more!